Saturday, February 24, 2018, 3:23 AM EST
Back to Local

KVSF, Hartness State Airport

Location: Perkinsville, VT, United States Lat: 43.35
Local Time: 3:23 AM EST ( 8:23 GMT) Lon: -72.517
Time Zone: US/Eastern Elev: 577 ft

Show me the last for .
Show Decoded

2018-02-24 02:54 METAR KVSF 240754Z AUTO 00000KT 5SM BR SCT004 OVC027 00/00 A3001 RMK AO2 SLP171
                 T00000000 =
2018-02-24 02:34 METAR KVSF 240734Z AUTO 00000KT 3SM BR OVC004 01/01 A3001 RMK AO2 T00060006 =
2018-02-24 02:30 METAR KVSF 240730Z AUTO 00000KT 1 1/2SM BR OVC003 01/01 A3001 RMK AO2 T00060006
                 =
2018-02-24 02:23 METAR KVSF 240723Z AUTO 00000KT 2SM BR OVC003 01/01 A3001 RMK AO2 T00060006 =
2018-02-24 02:02 METAR KVSF 240702Z AUTO 00000KT 5SM BR OVC005 00/00 A3002 RMK AO2 T00000000 =
2018-02-24 01:54 METAR KVSF 240654Z AUTO 00000KT 2 1/2SM BR OVC005 00/00 A3003 RMK AO2 VIS 1
                 1/2V5 SLP175 T00000000 =
2018-02-24 01:46 METAR KVSF 240646Z AUTO 00000KT 3SM BR OVC005 00/00 A3002 RMK AO2 T00000000 =
2018-02-24 01:18 METAR KVSF 240618Z AUTO 00000KT 8SM OVC004 01/01 A3002 RMK AO2 T00060006 =
2018-02-24 01:06 METAR KVSF 240606Z AUTO 00000KT 6SM BR OVC005 01/01 A3002 RMK AO2 T00060006 =
2018-02-24 00:54 METAR KVSF 240554Z AUTO 00000KT 3SM BR OVC006 01/00 A3002 RMK AO2 CIG 004V008
                 SLP173 60004 T00060000 10006 20000 56029 =
2018-02-24 00:07 METAR KVSF 240507Z AUTO 00000KT 6SM BR OVC006 01/01 A3003 RMK AO2 T00060006 =
2018-02-23 23:54 METAR KVSF 240454Z AUTO 00000KT 4SM BR OVC005 01/01 A3004 RMK AO2 SLP180
                 T00060006 400171083 =
2018-02-23 23:36 METAR KVSF 240436Z AUTO 00000KT 4SM BR OVC005 01/01 A3004 RMK AO2 T00060006 =
2018-02-23 22:54 METAR KVSF 240354Z AUTO 00000KT 6SM BR OVC007 01/01 A3007 RMK AO2 SLP188
                 T00060006 =
2018-02-23 21:54 METAR KVSF 240254Z AUTO 17003KT 7SM OVC007 01/01 A3011 RMK AO2 CIG 005V010
                 SLP203 60004 T00060006 58042 =
2018-02-23 21:18 METAR KVSF 240218Z AUTO 16005KT 6SM BR OVC008 01/00 A3013 RMK AO2 CIG 006V010
                 T00060000 =
2018-02-23 20:54 METAR KVSF 240154Z AUTO 18005KT 10SM OVC010 01/00 A3015 RMK AO2 RAE41 CIG
                 008V013 SLP219 P0002 T00060000 =
2018-02-23 19:54 METAR KVSF 240054Z AUTO 19005KT 5SM RA BR OVC010 01/00 A3020 RMK AO2 UPB17E18
                 CIG 008V013 SLP234 P0002 T00060000 =
2018-02-23 18:54 METAR KVSF 232354Z AUTO 16006KT 9SM -RA BKN013 OVC018 01/00 A3023 RMK AO2 SLP247
                 P0005 60010 T00060000 10017 20000 56043 =
2018-02-23 18:11 METAR KVSF 232311Z AUTO 18006KT 5SM -RA BR BKN015 OVC025 01/00 A3026 RMK AO2
                 P0002 T00060000 =
2018-02-23 17:54 METAR KVSF 232254Z AUTO 18008KT 6SM -RA BR OVC013 01/M01 A3026 RMK AO2 RAB2156
                 SLP255 P0003 T00061006 =
2018-02-23 16:54 METAR KVSF 232154Z AUTO 17005KT 10SM OVC012 01/M01 A3030 RMK AO2 RAE11UPB11E49
                 SLP271 P0001 T00061006 =
2018-02-23 16:39 METAR KVSF 232139Z AUTO 17006KT 5SM UP BR BKN009 OVC015 00/00 A3032 RMK AO2
                 RAE11UPB11 CIG 006V013 P0001 T00000000 =
2018-02-23 16:20 METAR KVSF 232120Z AUTO 17006KT 3SM UP BR FEW008 OVC013 00/M01 A3033 RMK AO2
                 RAE11UPB11 PRESFR P0001 T00001006 =
2018-02-23 15:54 METAR KVSF 232054Z AUTO 18004KT 5SM -RA BR OVC014 01/M01 A3036 RMK AO2 PRESFR
                 SLP291 P0001 60001 T00061006 56040 =
2018-02-23 15:31 METAR KVSF 232031Z AUTO 16005KT 4SM -RA BR BKN014 OVC018 01/M01 A3039 RMK AO2
                 P0000 T00061006 =
2018-02-23 14:54 METAR KVSF 231954Z AUTO 19008G15KT 9SM -RA BKN022 OVC029 01/M02 A3040 RMK AO2
                 RAB30 SLP302 P0000 T00111022 =
2018-02-23 14:40 METAR KVSF 231940Z AUTO 20005KT 10SM -RA BKN022 BKN027 OVC038 01/M02 A3041 RMK
                 AO2 RAB30 P0000 T00111022 =
2018-02-23 13:54 METAR KVSF 231854Z AUTO 20007KT 10SM OVC040 01/M03 A3042 RMK AO2 SLP312
                 T00111033 =
2018-02-23 12:54 METAR KVSF 231754Z AUTO 16010G16KT 10SM OVC060 02/M05 A3048 RMK AO2 PRESFR
                 SLP331 T00171050 10017 21078 58046 =
2018-02-23 11:54 METAR KVSF 231654Z AUTO 17007KT 10SM SCT085 BKN120 01/M05 A3053 RMK AO2 SLP349
                 T00111050 =
2018-02-23 10:54 METAR KVSF 231554Z AUTO 14004KT 10SM FEW110 01/M05 A3058 RMK AO2 SLP364
                 T00061050 =
2018-02-23 09:54 METAR KVSF 231454Z AUTO 00000KT 10SM BKN120 M02/M04 A3062 RMK AO2 SLP378
                 T10171039 58019 =
2018-02-23 08:54 METAR KVSF 231354Z AUTO 00000KT 10SM CLR M04/M04 A3065 RMK AO2 SLP388 T10441044
                 =
2018-02-23 07:54 METAR KVSF 231254Z AUTO 00000KT 10SM CLR M07/M07 A3067 RMK AO2 SLP396 T10671067
                 =
2018-02-23 06:54 METAR KVSF 231154Z AUTO 00000KT 10SM FEW120 M08/M08 A3068 RMK AO2 SLP398 70010
                 I1000 I6001 T10781083 11039 21083 56005 =
2018-02-23 06:01 METAR KVSF 231101Z AUTO 00000KT 10SM SCT002 M07/M08 A3068 RMK AO2 T10721083 =
2018-02-23 05:54 METAR KVSF 231054Z AUTO 00000KT 10SM BKN002 M07/M08 A3068 RMK AO2 SLP400
                 T10671078 =
2018-02-23 05:51 METAR KVSF 231051Z AUTO 00000KT 10SM BKN002 M07/M08 A3068 RMK AO2 =
2018-02-23 05:04 METAR KVSF 231004Z AUTO 00000KT 6SM BR SCT002 M07/M08 A3069 RMK AO2 T10671078 =
2018-02-23 05:02 METAR KVSF 231002Z AUTO 00000KT 2SM BR BKN002 M07/M08 A3069 RMK AO2 T10671078 =
2018-02-23 04:54 METAR KVSF 230954Z AUTO 00000KT 1/2SM FZFG VV002 M07/M08 A3069 RMK AO2 SLP403
                 I1000 T10671078 =
2018-02-23 04:40 METAR KVSF 230940Z AUTO 00000KT 3/4SM BR VV002 M07/M07 A3069 RMK AO2 I1000
                 T10671072 =
2018-02-23 04:29 METAR KVSF 230929Z AUTO 00000KT 1 1/4SM BR SCT001 M07/M07 A3069 RMK AO2
                 T10671072 =
2018-02-23 04:18 METAR KVSF 230918Z AUTO 00000KT 3/4SM BR VV001 M07/M07 A3069 RMK AO2 T10671072 =
2018-02-23 03:54 METAR KVSF 230854Z AUTO 00000KT 1/4SM FZFG VV002 M07/M07 A3068 RMK AO2 SLP401
                 I1000 I3001 T10671072 58005 =
2018-02-23 03:46 METAR KVSF 230846Z AUTO 00000KT 3/4SM BR OVC002 M07/M07 A3069 RMK AO2 I1000
                 T10671072 =
2018-02-23 03:34 METAR KVSF 230834Z AUTO 00000KT 8SM BKN002 M07/M07 A3069 RMK AO2 T10671072 =

Support USWX by starting your Amazon purchase here.